Terminal Aerodrome Forecast
Issued by NWS

Current Version | Previous Version | Graphics & Text | Print | Product List | Glossary On
Versions: 1 2 3 4 5 6 7 8 9 10 11 12 13 14 15 16 17 18 19 20 21 22 23
290
FTUS41 KRLX 240922 AAA
TAFCKB
TAF AMD
KCKB 240922Z 2409/2506 26005KT 5SM BR SCT008 BKN010
     FM241100 28006KT P6SM BKN008
     FM241500 28006KT P6SM BKN035
     FM241900 27008G15KT P6SM SCT045=

USA.gov is the U.S. government's official web portal to all federal, state and local government web resources and services.